Time;durP1;ratioP1;P1;durP2;ratioP2;P2;SDS_P1;SDS_P2;PMS_P1;PMS_P2;Temp;Humidity;BMP_temperature;BMP_pressure;BME280_temperature;BME280_humidity;BME280_pressure;Samples;Min_cycle;Max_cycle;Signal;HPM_P1;HPM_P2
2022/07/04 00:05:12;;;;;;;7.62;6.30;;;;;;;17.72;79.63;99156.27;4375157;79;22195;-81
2022/07/04 00:11:13;;;;;;;7.90;6.47;;;;;;;17.79;79.99;99155.37;4412223;77;21729;-83
2022/07/04 00:17:14;;;;;;;11.05;6.80;;;;;;;17.70;80.06;99152.33;4386553;77;21045;-82
2022/07/04 00:23:17;;;;;;;8.33;6.65;;;;;;;17.56;80.26;99142.26;4440344;77;20996;-81
2022/07/04 00:29:18;;;;;;;7.85;6.62;;;;;;;17.33;80.53;99139.98;4437802;77;20991;-83
2022/07/04 00:35:19;;;;;;;9.78;5.87;;;;;;;17.13;80.74;99143.41;4326580;79;21046;-81
2022/07/04 00:41:21;;;;;;;8.18;6.15;;;;;;;16.98;81.57;99145.38;4302208;79;21621;-82
2022/07/04 00:54:21;;;;;;;7.35;5.35;;;;;;;16.76;82.65;99133.80;4444574;78;21082;-82
2022/07/04 01:00:23;;;;;;;7.80;6.20;;;;;;;16.93;83.19;99143.06;4408003;78;22125;-82
2022/07/04 01:06:33;;;;;;;11.00;6.80;;;;;;;16.87;82.97;99145.52;4447768;78;21098;-81
2022/07/04 01:12:35;;;;;;;8.18;7.33;;;;;;;16.71;83.21;99140.38;4440394;77;21070;-83
2022/07/04 01:18:37;;;;;;;9.75;8.18;;;;;;;16.47;83.35;99138.07;4424144;77;21535;-82
2022/07/04 01:24:38;;;;;;;9.38;7.42;;;;;;;16.35;83.78;99128.11;4444817;77;20984;-83
2022/07/04 01:30:41;;;;;;;9.10;6.55;;;;;;;16.23;84.30;99130.77;4416499;77;21052;-83
2022/07/04 01:36:42;;;;;;;10.13;6.42;;;;;;;16.15;84.64;99134.78;4440570;77;22054;-85
2022/07/04 01:42:48;;;;;;;9.00;6.28;;;;;;;16.04;85.07;99127.19;4434443;77;20986;-83
2022/07/04 01:48:49;;;;;;;9.10;6.40;;;;;;;16.07;85.73;99139.42;4405468;78;21868;-84
2022/07/04 01:54:51;;;;;;;8.25;7.12;;;;;;;16.16;85.65;99143.25;4438919;77;21065;-85
2022/07/04 02:07:17;;;;;;;8.10;6.95;;;;;;;15.95;85.77;99136.55;4414042;78;21039;-83
2022/07/04 02:20:34;;;;;;;7.78;6.58;;;;;;;15.75;86.32;99145.77;4420031;79;21074;-82
2022/07/04 02:26:36;;;;;;;10.75;7.17;;;;;;;15.77;86.74;99154.44;4430988;77;21937;-84
2022/07/04 02:32:59;;;;;;;8.65;7.72;;;;;;;15.63;86.69;99159.44;4421496;77;21087;-83
2022/07/04 02:39:00;;;;;;;9.63;7.05;;;;;;;15.51;86.73;99150.27;4441363;77;22150;-83
2022/07/04 02:45:01;;;;;;;9.33;7.35;;;;;;;15.38;87.17;99156.05;4329500;77;31324;-83
2022/07/04 02:51:02;;;;;;;9.18;6.40;;;;;;;15.30;87.52;99151.75;4050652;85;21095;-83
2022/07/04 02:57:06;;;;;;;8.23;7.42;;;;;;;15.29;88.06;99159.81;4130888;83;21099;-83
2022/07/04 03:03:07;;;;;;;10.32;6.97;;;;;;;15.30;88.11;99165.55;4154442;82;21087;-83
2022/07/04 03:09:09;;;;;;;10.08;7.85;;;;;;;15.23;88.25;99152.56;4150987;82;21100;-83
2022/07/04 03:15:12;;;;;;;7.50;6.35;;;;;;;15.24;88.42;99164.36;4160677;82;21118;-83
2022/07/04 03:21:13;;;;;;;8.48;7.50;;;;;;;15.22;88.78;99156.49;4184834;82;21053;-83
2022/07/04 03:27:14;;;;;;;10.75;6.90;;;;;;;15.17;88.97;99150.62;4159343;82;21044;-83
2022/07/04 03:33:16;;;;;;;6.97;6.20;;;;;;;15.18;89.46;99157.12;4168467;82;21003;-83
2022/07/04 03:46:10;;;;;;;8.05;6.78;;;;;;;15.50;89.78;99154.22;4172823;83;21479;-83
2022/07/04 03:52:11;;;;;;;7.87;7.08;;;;;;;15.59;90.28;99149.83;4168931;82;22163;-83
2022/07/04 03:58:13;;;;;;;7.78;6.53;;;;;;;15.67;90.28;99150.56;4139906;82;21059;-83
2022/07/04 04:10:35;;;;;;;9.90;6.30;;;;;;;15.94;90.68;99161.80;4145322;82;21056;-83
2022/07/04 04:16:36;;;;;;;10.95;8.10;;;;;;;16.10;90.68;99178.02;4138909;82;21555;-84
2022/07/04 04:22:41;;;;;;;9.75;8.43;;;;;;;16.24;90.59;99171.00;4136085;82;21060;-83
2022/07/04 04:28:43;;;;;;;10.85;8.00;;;;;;;16.36;90.44;99171.10;4026434;85;21571;-84
2022/07/04 04:34:44;;;;;;;9.20;8.28;;;;;;;16.50;90.47;99166.85;4105336;85;21030;-85
2022/07/04 04:40:45;;;;;;;9.13;7.97;;;;;;;16.63;90.45;99180.34;4160571;82;21106;-84
2022/07/04 04:46:48;;;;;;;10.72;8.35;;;;;;;16.75;90.46;99164.61;4136880;83;21103;-84
2022/07/04 04:52:52;;;;;;;13.48;9.98;;;;;;;16.85;90.67;99171.40;4156204;83;22195;-84
2022/07/04 04:58:54;;;;;;;13.53;9.78;;;;;;;16.98;90.65;99164.73;4138327;82;21054;-85
2022/07/04 05:04:57;;;;;;;11.28;9.28;;;;;;;17.12;90.78;99157.06;4142645;82;21519;-84
2022/07/04 05:11:05;;;;;;;12.88;8.93;;;;;;;17.28;90.82;99163.37;4126134;83;21019;-84
2022/07/04 05:17:07;;;;;;;12.68;8.53;;;;;;;17.44;90.76;99143.39;4126394;82;21055;-84
2022/07/04 05:23:14;;;;;;;11.83;8.83;;;;;;;17.62;90.87;99157.19;4047616;85;21124;-84
2022/07/04 05:29:15;;;;;;;12.35;8.45;;;;;;;17.82;90.94;99164.23;4161323;82;21380;-83
2022/07/04 05:35:16;;;;;;;10.30;8.70;;;;;;;18.08;90.85;99173.11;4154342;82;21034;-85
2022/07/04 05:41:20;;;;;;;13.90;8.58;;;;;;;18.36;90.67;99176.78;4169508;82;21018;-84
2022/07/04 05:47:24;;;;;;;12.15;8.45;;;;;;;18.64;90.37;99166.61;4145830;82;21050;-84
2022/07/04 05:53:26;;;;;;;15.58;11.18;;;;;;;18.88;90.16;99174.28;4141977;82;21837;-84
2022/07/04 05:59:32;;;;;;;13.88;12.23;;;;;;;19.09;90.09;99180.18;4152436;82;21979;-84
2022/07/04 06:05:40;;;;;;;16.75;11.03;;;;;;;19.30;90.01;99179.00;4140183;83;21011;-84
2022/07/04 06:11:41;;;;;;;13.88;11.00;;;;;;;19.51;89.93;99184.87;4133773;82;21129;-84
2022/07/04 06:17:42;;;;;;;16.05;11.57;;;;;;;19.73;90.03;99186.59;4153340;83;21068;-83
2022/07/04 06:23:44;;;;;;;12.18;10.88;;;;;;;19.95;89.97;99182.88;4160020;82;21566;-84
2022/07/04 06:29:45;;;;;;;16.40;11.45;;;;;;;20.17;89.66;99179.79;4100678;85;21020;-84
2022/07/04 06:36:05;;;;;;;14.20;12.30;;;;;;;20.43;89.30;99171.01;4124859;82;21055;-85
2022/07/04 06:41:53;;;;;;;12.87;11.43;;;;;;;20.70;89.06;99164.54;4119404;83;21047;-85
2022/07/04 06:47:54;;;;;;;18.27;12.15;;;;;;;21.01;88.54;99164.30;4131087;84;21090;-84
2022/07/04 06:53:55;;;;;;;13.93;11.35;;;;;;;21.34;88.34;99159.36;4137703;82;21519;-85
2022/07/04 06:59:57;;;;;;;15.23;11.68;;;;;;;21.84;88.15;99160.04;4133437;82;21059;-85
2022/07/04 07:05:58;;;;;;;15.65;11.83;;;;;;;22.57;87.83;99162.40;4158980;82;21061;-84
2022/07/04 07:11:59;;;;;;;12.80;10.10;;;;;;;23.31;86.74;99155.55;4132808;82;21590;-85
2022/07/04 07:18:03;;;;;;;10.78;9.63;;;;;;;24.16;85.50;99153.19;4132811;82;21039;-86
2022/07/04 07:24:04;;;;;;;12.73;10.03;;;;;;;24.95;83.78;99151.44;4137338;82;21154;-86
2022/07/04 07:30:07;;;;;;;12.95;10.03;;;;;;;25.75;82.25;99149.70;4133010;82;21018;-86
2022/07/04 07:36:08;;;;;;;11.10;9.25;;;;;;;26.21;80.13;99141.88;4130979;82;21094;-85
2022/07/04 07:42:10;;;;;;;11.97;9.83;;;;;;;26.72;78.34;99145.31;4134689;82;21693;-86
2022/07/04 07:48:11;;;;;;;11.80;7.85;;;;;;;27.01;76.72;99146.15;4112663;84;22097;-86
2022/07/04 07:54:13;;;;;;;10.80;8.50;;;;;;;27.38;74.59;99140.34;4143453;82;21045;-86
2022/07/04 08:00:16;;;;;;;12.25;8.03;;;;;;;27.43;73.00;99134.66;4145658;83;21043;-85
2022/07/04 08:06:17;;;;;;;8.88;7.97;;;;;;;27.56;71.54;99135.16;4119201;82;22006;-87
2022/07/04 08:12:18;;;;;;;8.68;7.47;;;;;;;27.64;69.85;99137.72;4140628;82;21107;-87
2022/07/04 08:18:20;;;;;;;9.65;7.15;;;;;;;27.57;68.27;99136.06;4153318;82;21381;-86
2022/07/04 08:24:22;;;;;;;8.20;6.50;;;;;;;27.56;68.32;99144.34;4125192;83;21019;-86
2022/07/04 08:30:23;;;;;;;7.53;6.35;;;;;;;27.64;66.92;99144.75;4142361;82;21083;-86
2022/07/04 08:36:24;;;;;;;6.35;5.75;;;;;;;27.69;65.45;99147.50;4134859;82;21658;-86
2022/07/04 08:42:29;;;;;;;6.80;6.17;;;;;;;27.81;64.49;99148.59;4129441;82;21555;-86
2022/07/04 08:48:32;;;;;;;6.50;5.90;;;;;;;27.74;63.50;99143.36;4133009;83;21051;-86
2022/07/04 18:12:04;;;;;;;6.10;3.80;;;;;;;26.83;47.55;98967.17;4557517;75;22417;-83
2022/07/04 18:18:06;;;;;;;5.40;3.70;;;;;;;26.70;48.01;98965.30;4515585;77;21467;-82
2022/07/04 18:24:09;;;;;;;9.38;5.05;;;;;;;26.59;48.55;98963.67;4510317;77;21050;-83
2022/07/04 18:30:11;;;;;;;6.62;4.83;;;;;;;26.46;49.09;98968.78;4510839;77;21021;-83
2022/07/04 18:36:25;;;;;;;6.70;5.30;;;;;;;26.30;49.64;98961.61;4510198;77;21028;-83
2022/07/04 18:48:50;;;;;;;8.20;4.33;;;;;;;25.89;51.25;98956.30;4419025;78;21885;-83
2022/07/04 18:54:51;;;;;;;11.35;4.70;;;;;;;25.59;51.88;98963.05;4415556;78;20959;-83
2022/07/04 19:00:53;;;;;;;14.05;5.50;;;;;;;25.41;52.50;98973.59;4302551;78;10000183;-83
2022/07/04 19:06:54;;;;;;;9.80;4.87;;;;;;;25.25;53.47;98982.34;4405670;78;21278;-82
2022/07/04 19:12:56;;;;;;;12.80;5.03;;;;;;;25.09;54.33;98989.11;4362204;80;21100;-82
2022/07/04 19:18:57;;;;;;;12.95;5.95;;;;;;;24.91;55.10;98984.98;4363563;80;21025;-84
2022/07/04 19:24:58;;;;;;;8.38;5.85;;;;;;;24.72;55.67;98995.28;4358372;80;21133;-84
2022/07/04 19:31:01;;;;;;;8.35;5.03;;;;;;;24.56;56.26;98998.55;4364038;80;21034;-83
2022/07/04 19:37:03;;;;;;;10.13;5.28;;;;;;;24.47;56.88;99006.97;4364732;80;21334;-83
2022/07/04 19:43:04;;;;;;;17.55;7.50;;;;;;;24.41;57.68;99010.24;4357311;80;20999;-83
2022/07/04 19:49:06;;;;;;;16.75;7.75;;;;;;;24.20;57.81;99020.95;4359519;80;22068;-84
2022/07/04 19:55:12;;;;;;;14.50;6.78;;;;;;;23.97;58.43;99019.38;4366739;80;20982;-83
2022/07/04 20:01:14;;;;;;;11.87;7.80;;;;;;;23.80;58.85;99034.85;4365411;80;21839;-83
2022/07/04 20:07:17;;;;;;;13.70;8.20;;;;;;;23.65;59.76;99042.28;4340237;78;22200;-84
2022/07/04 20:13:21;;;;;;;10.18;6.17;;;;;;;23.51;60.36;99033.83;4443861;79;21928;-83
2022/07/04 20:19:25;;;;;;;;;;;;;;;23.45;60.79;99033.49;4396295;78;21006;-83
2022/07/04 20:25:26;;;;;;;7.15;5.40;;;;;;;23.24;62.32;99040.06;4393895;80;20102;-84
2022/07/04 20:31:27;;;;;;;10.32;6.00;;;;;;;23.03;62.37;99040.11;4395192;79;21908;-83
2022/07/04 20:37:29;;;;;;;10.53;6.62;;;;;;;23.01;62.91;99048.95;4402810;78;20955;-83
2022/07/04 20:43:31;;;;;;;12.63;7.65;;;;;;;22.96;63.00;99044.55;4453535;78;21015;-83
2022/07/04 20:49:34;;;;;;;12.65;8.70;;;;;;;22.91;63.64;99054.94;4413844;78;20946;-84
2022/07/04 20:55:36;;;;;;;10.95;7.97;;;;;;;22.80;64.14;99056.71;4414765;78;20993;-83
2022/07/04 21:01:38;;;;;;;10.05;7.37;;;;;;;22.73;64.38;99047.83;4422538;78;21462;-82
2022/07/04 21:07:41;;;;;;;10.93;8.60;;;;;;;22.59;64.78;99040.77;4418480;78;21043;-84
2022/07/04 21:13:42;;;;;;;13.43;7.95;;;;;;;22.54;65.36;99048.32;4465794;78;21053;-83
2022/07/04 21:19:44;;;;;;;10.93;7.22;;;;;;;22.40;65.78;99050.20;4467930;78;21070;-82
2022/07/04 21:25:45;;;;;;;9.88;7.53;;;;;;;22.31;66.05;99061.28;4479060;79;20978;-83
2022/07/04 21:31:47;;;;;;;10.72;7.80;;;;;;;22.29;66.92;99065.73;4461288;78;20992;-83
2022/07/04 21:37:50;;;;;;;14.90;7.67;;;;;;;22.29;67.51;99055.97;4443088;79;20979;-83
2022/07/04 21:43:52;;;;;;;15.63;9.18;;;;;;;22.27;67.66;99053.64;4460360;78;21108;-83
2022/07/04 21:49:53;;;;;;;12.45;8.45;;;;;;;22.16;67.91;99050.44;4465344;78;21019;-83
2022/07/04 21:55:54;;;;;;;11.57;7.47;;;;;;;22.08;68.41;99038.61;4465777;78;21856;-83
2022/07/04 22:01:55;;;;;;;16.93;7.30;;;;;;;22.03;68.80;99041.96;4467550;78;21014;-83
2022/07/04 22:07:57;;;;;;;13.22;7.85;;;;;;;22.00;69.19;99038.69;4454661;78;21106;-83
2022/07/04 22:13:58;;;;;;;13.03;7.30;;;;;;;21.93;69.99;99041.70;4450727;78;21033;-83
2022/07/04 22:20:07;;;;;;;11.30;7.12;;;;;;;21.93;70.50;99045.27;4474828;78;21025;-83
2022/07/04 22:26:08;;;;;;;12.55;7.97;;;;;;;21.93;70.64;99041.09;4312437;80;21014;-82
2022/07/04 22:32:10;;;;;;;9.88;8.15;;;;;;;21.83;70.70;99023.34;4283634;81;21020;-82
2022/07/04 22:38:11;;;;;;;14.20;7.83;;;;;;;21.72;71.20;99026.47;4301211;81;21018;-83
2022/07/04 22:44:12;;;;;;;11.90;8.03;;;;;;;21.61;72.06;99018.44;4295026;81;22026;-83
2022/07/04 22:50:13;;;;;;;12.50;8.03;;;;;;;21.55;72.37;99017.45;4373658;80;21075;-83
2022/07/04 22:56:15;;;;;;;11.40;7.60;;;;;;;21.50;72.76;99017.24;4377530;80;21046;-84
2022/07/04 23:02:17;;;;;;;13.00;8.13;;;;;;;21.42;73.24;99016.67;4394700;80;21034;-82
2022/07/04 23:08:19;;;;;;;11.80;8.63;;;;;;;21.31;73.76;99024.58;4274334;81;21871;-83
2022/07/04 23:14:20;;;;;;;11.50;7.87;;;;;;;21.27;73.95;99025.32;4263942;81;21051;-82
2022/07/04 23:20:24;;;;;;;12.25;7.80;;;;;;;21.30;74.32;99041.73;4260813;82;21010;-83
2022/07/04 23:26:26;;;;;;;12.55;6.87;;;;;;;21.22;74.73;99041.81;4278774;81;21058;-86
2022/07/04 23:32:27;;;;;;;11.93;7.83;;;;;;;21.30;74.98;99052.27;4245052;81;20993;-83
2022/07/04 23:38:30;;;;;;;12.20;7.28;;;;;;;21.30;75.27;99049.48;4273515;81;21034;-82
2022/07/04 23:44:32;;;;;;;10.65;7.30;;;;;;;21.27;75.58;99042.02;4282854;81;21305;-84
2022/07/04 23:50:33;;;;;;;12.80;8.55;;;;;;;21.20;75.71;99049.22;4306678;81;21045;-84
2022/07/04 23:56:34;;;;;;;19.02;9.80;;;;;;;21.10;76.04;99058.66;4328068;81;21358;-83
